Portada
METAR-TAF:

METAR-TAF

Aeroports :

Sanford Regional Airport

Sanford, Maine, Estats Units d'Amèrica

latitud: 43-24N, longitud: 070-43W, altitud: 74 m

Observació

L'informe es va fer fa 29 minuts, a les 11:56 UTC
Vent 6 kt del Nord
Temperatura 18°C
Humitat 94%
Pressió 1016 hPa
Visibilitat: 16.1 km
Cel cobert a una alçada de 600 ft

METAR: KSFM 261156Z AUTO 01006KT 10SM OVC006 18/17 A3001 RMK AO2 SLP164 6//// 7//// T01830172 10183 20167 51011 PNO $

Hora: 08:25 (12:25 UTC)


TAF: manca

Observacions i pronòstics meteorològics de més de 4000 aeroports (METAR i TAF).

Les estacions disponibles són els punts grocs i vermells al mapa.

Posi el ratolí al punt desitjat per veure el nom de l'estació.

Feu clic per veure les observacions i els pronòstics meteorològics.

Per canviar el mapa: feu clic els botons verds amb una creu de color negre per apropar; al botó verd amb un guió per allunyar la imatge; o en les fletxes verdes per a mapes adjacents.


METAR-TAF: